createdAt,value
2022-09-15T00:01:21.979Z,100.00
2022-09-15T00:03:50.235Z,100.00
2022-09-15T00:06:20.784Z,100.00
2022-09-15T00:08:49.179Z,100.00
2022-09-15T00:11:20.048Z,100.00
2022-09-15T00:14:08.161Z,100.00
2022-09-15T00:16:39.314Z,100.00
2022-09-15T00:19:07.539Z,100.00
2022-09-15T00:21:38.703Z,100.00
2022-09-15T00:24:07.906Z,100.00
2022-09-15T00:26:36.669Z,100.00
2022-09-15T00:29:05.660Z,100.00
2022-09-15T00:31:34.518Z,100.00
2022-09-15T00:34:03.116Z,100.00
2022-09-15T00:36:32.116Z,100.00
2022-09-15T00:39:00.632Z,100.00
2022-09-15T00:41:29.133Z,100.00
2022-09-15T00:44:03.490Z,100.00
2022-09-15T00:46:34.701Z,100.00
2022-09-15T00:49:13.337Z,100.00
2022-09-15T00:51:52.451Z,100.00
2022-09-15T00:54:34.494Z,100.00
2022-09-15T00:57:07.240Z,100.00
2022-09-15T00:59:40.092Z,100.00
2022-09-15T01:02:15.595Z,100.00
2022-09-15T01:04:44.215Z,100.00
2022-09-15T01:07:17.008Z,100.00
2022-09-15T01:10:09.391Z,100.00
2022-09-15T01:12:39.319Z,100.00
2022-09-15T01:15:08.127Z,100.00
2022-09-15T01:18:00.875Z,100.00
2022-09-15T01:20:29.281Z,100.00
2022-09-15T01:23:32.317Z,100.00
2022-09-15T01:27:18.776Z,100.00
2022-09-15T01:30:11.498Z,100.00
2022-09-15T01:33:06.693Z,100.00
2022-09-15T01:35:54.490Z,100.00
2022-09-15T01:38:42.281Z,100.00
2022-09-15T01:41:26.479Z,100.00
2022-09-15T01:44:02.916Z,100.00
2022-09-15T01:46:38.455Z,100.00
2022-09-15T01:49:10.346Z,100.00
2022-09-15T01:51:40.810Z,100.00
2022-09-15T01:54:10.907Z,100.00
2022-09-15T01:56:42.344Z,100.00
2022-09-15T01:59:11.143Z,100.00
2022-09-15T02:01:47.171Z,100.00
2022-09-15T02:04:27.681Z,100.00
2022-09-15T02:07:02.936Z,100.00
2022-09-15T02:09:40.283Z,100.00
2022-09-15T02:12:38.013Z,100.00
2022-09-15T02:15:15.051Z,100.00
2022-09-15T02:17:50.532Z,100.00
2022-09-15T02:20:39.301Z,100.00
2022-09-15T02:23:24.256Z,100.00
2022-09-15T02:25:59.277Z,100.00
2022-09-15T02:28:32.929Z,100.00
2022-09-15T02:31:02.819Z,100.00
2022-09-15T02:33:37.714Z,100.00
2022-09-15T02:36:08.880Z,100.00
2022-09-15T02:38:43.434Z,100.00
2022-09-15T02:41:14.411Z,100.00
2022-09-15T02:43:49.811Z,100.00
2022-09-15T02:46:21.279Z,100.00
2022-09-15T02:48:49.870Z,100.00
2022-09-15T02:51:20.964Z,100.00
2022-09-15T02:53:49.090Z,100.00
2022-09-15T02:56:20.891Z,100.00
2022-09-15T02:58:49.101Z,100.00
2022-09-15T03:01:17.551Z,100.00
2022-09-15T03:03:46.684Z,100.00
2022-09-15T03:06:17.940Z,100.00
2022-09-15T03:08:51.684Z,100.00
2022-09-15T03:11:23.604Z,100.00
2022-09-15T03:13:57.463Z,100.00
2022-09-15T03:16:27.740Z,100.00
2022-09-15T03:18:58.623Z,100.00
2022-09-15T03:21:29.479Z,100.00
2022-09-15T03:23:59.150Z,100.00
2022-09-15T03:26:27.917Z,100.00
2022-09-15T03:28:56.109Z,100.00
2022-09-15T03:31:24.245Z,100.00
2022-09-15T03:33:56.055Z,100.00
2022-09-15T03:36:24.213Z,100.00
2022-09-15T03:38:52.751Z,100.00
2022-09-15T03:41:21.047Z,100.00
2022-09-15T03:43:49.323Z,100.00
2022-09-15T03:46:17.973Z,100.00
2022-09-15T03:48:47.553Z,100.00
2022-09-15T03:51:15.660Z,100.00
2022-09-15T03:53:44.091Z,100.00
2022-09-15T03:56:19.375Z,100.00
2022-09-15T03:58:47.510Z,100.00
2022-09-15T04:01:15.838Z,100.00
2022-09-15T04:03:48.830Z,100.00
2022-09-15T04:06:21.354Z,100.00
2022-09-15T04:08:50.229Z,100.00
2022-09-15T04:11:20.321Z,100.00
2022-09-15T04:13:49.098Z,100.00
2022-09-15T04:16:19.932Z,100.00
2022-09-15T04:18:48.007Z,100.00
2022-09-15T04:21:18.602Z,100.00
2022-09-15T04:23:47.554Z,100.00
2022-09-15T04:26:24.428Z,100.00
2022-09-15T04:28:52.698Z,100.00
2022-09-15T04:31:21.033Z,100.00
2022-09-15T04:33:52.197Z,100.00
2022-09-15T04:36:23.311Z,100.00
2022-09-15T04:38:51.860Z,100.00
2022-09-15T04:41:22.399Z,100.00
2022-09-15T04:43:50.759Z,100.00
2022-09-15T04:46:19.689Z,100.00
2022-09-15T04:48:50.626Z,100.00
2022-09-15T04:51:21.249Z,100.00
2022-09-15T04:53:50.180Z,100.00
2022-09-15T04:56:24.676Z,100.00
2022-09-15T04:59:02.485Z,100.00
2022-09-15T05:01:34.471Z,100.00
2022-09-15T05:04:04.346Z,100.00
2022-09-15T05:06:34.791Z,100.00
2022-09-15T05:09:09.760Z,100.00
2022-09-15T05:11:38.750Z,100.00
2022-09-15T05:14:08.109Z,100.00
2022-09-15T05:16:36.786Z,100.00
2022-09-15T05:19:05.050Z,100.00
2022-09-15T05:21:33.879Z,100.00
2022-09-15T05:24:02.204Z,100.00
2022-09-15T05:26:30.868Z,100.00
2022-09-15T05:28:59.116Z,100.00
2022-09-15T05:31:33.772Z,100.00
2022-09-15T05:34:06.483Z,100.00
2022-09-15T05:36:34.902Z,100.00
2022-09-15T05:39:03.615Z,100.00
2022-09-15T05:41:31.723Z,100.00
2022-09-15T05:44:00.222Z,100.00
2022-09-15T05:46:29.424Z,100.00
2022-09-15T05:48:58.729Z,100.00
2022-09-15T05:51:27.772Z,100.00
2022-09-15T05:53:56.023Z,100.00
2022-09-15T05:56:24.265Z,100.00
2022-09-15T05:58:52.584Z,100.00
2022-09-15T06:01:29.081Z,100.00
2022-09-15T06:03:58.397Z,100.00
2022-09-15T06:06:27.069Z,100.00
2022-09-15T06:08:58.832Z,100.00
2022-09-15T06:11:29.777Z,100.00
2022-09-15T06:14:03.039Z,100.00
2022-09-15T06:16:35.537Z,100.00
2022-09-15T06:19:04.177Z,100.00
2022-09-15T06:21:33.029Z,100.00
2022-09-15T06:24:04.577Z,100.00
2022-09-15T06:26:33.187Z,100.00
2022-09-15T06:29:03.336Z,100.00
2022-09-15T06:31:33.432Z,100.00
2022-09-15T06:34:02.422Z,100.00
2022-09-15T06:36:32.065Z,100.00
2022-09-15T06:39:00.469Z,100.00
2022-09-15T06:41:35.313Z,100.00
2022-09-15T06:44:19.051Z,100.00
2022-09-15T06:46:47.478Z,100.00
2022-09-15T06:49:16.183Z,100.00
2022-09-15T06:51:44.295Z,100.00
2022-09-15T06:54:12.632Z,100.00
2022-09-15T06:56:40.968Z,100.00
2022-09-15T06:59:12.527Z,100.00
2022-09-15T07:01:41.142Z,100.00
2022-09-15T07:04:10.146Z,100.00
2022-09-15T07:06:39.494Z,100.00
2022-09-15T07:09:08.008Z,100.00
2022-09-15T07:11:38.244Z,100.00
2022-09-15T07:14:06.795Z,100.00
2022-09-15T07:16:35.069Z,100.00
2022-09-15T07:19:05.243Z,100.00
2022-09-15T07:21:34.328Z,100.00
2022-09-15T07:24:07.047Z,100.00
2022-09-15T07:26:35.721Z,100.00
2022-09-15T07:29:06.679Z,100.00
2022-09-15T07:31:37.986Z,100.00
2022-09-15T07:34:07.177Z,100.00
2022-09-15T07:36:35.527Z,100.00
2022-09-15T07:39:05.201Z,100.00
2022-09-15T07:41:33.719Z,100.00
2022-09-15T07:44:02.570Z,100.00
2022-09-15T07:46:32.568Z,100.00
2022-09-15T07:49:04.355Z,100.00
2022-09-15T07:51:32.611Z,100.00
2022-09-15T07:54:04.912Z,100.00
2022-09-15T07:56:33.378Z,100.00
2022-09-15T07:59:01.637Z,100.00
2022-09-15T08:01:29.829Z,100.00
2022-09-15T08:03:57.955Z,100.00
2022-09-15T08:06:26.848Z,100.00
2022-09-15T08:09:00.050Z,100.00
2022-09-15T08:11:29.417Z,100.00
2022-09-15T08:14:00.298Z,100.00
2022-09-15T08:16:28.472Z,100.00
2022-09-15T08:18:57.055Z,100.00
2022-09-15T08:21:29.223Z,100.00
2022-09-15T08:23:59.815Z,100.00
2022-09-15T08:26:29.262Z,100.00
2022-09-15T08:28:58.040Z,100.00
2022-09-15T08:31:26.425Z,100.00
2022-09-15T08:33:56.139Z,100.00
2022-09-15T08:36:27.901Z,100.00
2022-09-15T08:38:56.699Z,100.00
2022-09-15T08:41:41.547Z,100.00
2022-09-15T08:44:26.729Z,100.00
2022-09-15T08:47:06.431Z,100.00
2022-09-15T08:49:51.025Z,100.00
2022-09-15T08:52:28.933Z,100.00
2022-09-15T08:55:12.089Z,100.00
2022-09-15T08:57:40.617Z,100.00
2022-09-15T09:00:16.055Z,100.00
2022-09-15T09:03:03.179Z,97.65
2022-09-15T09:05:47.527Z,97.66
2022-09-15T09:08:38.084Z,97.34
2022-09-15T09:11:35.279Z,99.44
2022-09-15T09:14:30.954Z,97.02
2022-09-15T09:17:18.830Z,100.00
2022-09-15T09:20:08.959Z,99.03
2022-09-15T09:22:40.700Z,97.02
2022-09-15T09:25:26.769Z,98.21
2022-09-15T09:27:58.445Z,97.75
2022-09-15T09:30:30.083Z,97.09
2022-09-15T09:33:25.368Z,99.64
2022-09-15T09:35:55.585Z,94.79
2022-09-15T09:38:29.844Z,95.39
2022-09-15T09:41:02.245Z,93.63
2022-09-15T09:43:31.256Z,91.80
2022-09-15T09:45:59.409Z,95.20
2022-09-15T09:48:28.794Z,100.00
2022-09-15T09:51:00.220Z,92.45
2022-09-15T09:53:31.092Z,95.37
2022-09-15T09:56:26.723Z,92.92
2022-09-15T09:58:55.355Z,93.74
2022-09-15T10:01:27.530Z,94.51
2022-09-15T10:04:19.113Z,90.80
2022-09-15T10:06:47.809Z,89.92
2022-09-15T10:09:18.370Z,93.17
2022-09-15T10:11:55.154Z,91.72
2022-09-15T10:14:33.695Z,88.93
2022-09-15T10:17:17.814Z,92.38
2022-09-15T10:19:50.382Z,88.70
2022-09-15T10:22:33.712Z,89.43
2022-09-15T10:25:23.253Z,91.46
2022-09-15T10:28:13.504Z,92.99
2022-09-15T10:31:04.461Z,89.33
2022-09-15T10:33:44.952Z,85.77
2022-09-15T10:36:19.413Z,83.21
2022-09-15T10:38:51.599Z,86.54
2022-09-15T10:41:31.125Z,81.37
2022-09-15T10:44:02.196Z,81.33
2022-09-15T10:47:01.071Z,78.63
2022-09-15T10:49:57.009Z,75.07
2022-09-15T10:52:40.147Z,75.69
2022-09-15T10:55:51.154Z,78.03
2022-09-15T10:58:27.767Z,73.07
2022-09-15T11:01:01.785Z,71.60
2022-09-15T11:03:58.300Z,72.72
2022-09-15T11:06:26.615Z,74.09
2022-09-15T11:09:17.594Z,73.43
2022-09-15T11:12:04.187Z,75.27
2022-09-15T11:15:00.298Z,74.57
2022-09-15T11:17:48.255Z,74.14
2022-09-15T11:20:43.438Z,73.13
2022-09-15T11:23:20.758Z,71.83
2022-09-15T11:25:58.717Z,72.66
2022-09-15T11:28:52.898Z,71.14
2022-09-15T11:31:50.278Z,73.93
2022-09-15T11:34:28.193Z,74.05
2022-09-15T11:37:40.510Z,76.11
2022-09-15T11:40:33.539Z,75.45
2022-09-15T11:43:12.416Z,77.58
2022-09-15T11:45:47.535Z,75.95
2022-09-15T11:48:31.078Z,72.22
2022-09-15T11:51:01.923Z,68.65
2022-09-15T11:53:32.979Z,66.68
2022-09-15T11:56:21.827Z,63.53
2022-09-15T11:58:55.801Z,62.61
2022-09-15T12:01:45.681Z,60.22
2022-09-15T12:04:22.164Z,65.76
2022-09-15T12:07:08.730Z,66.81
2022-09-15T12:09:40.012Z,69.46
2022-09-15T12:12:15.220Z,69.49
2022-09-15T12:14:46.688Z,66.09
2022-09-15T12:17:30.690Z,65.47
2022-09-15T12:20:22.913Z,62.10
2022-09-15T12:22:56.871Z,60.79
2022-09-15T12:25:53.749Z,62.94
2022-09-15T12:28:25.011Z,59.71
2022-09-15T12:31:31.445Z,60.51
2022-09-15T12:34:27.176Z,60.84
2022-09-15T12:37:13.662Z,54.72
2022-09-15T12:39:44.503Z,57.37
2022-09-15T12:42:31.277Z,58.79
2022-09-15T12:45:20.924Z,56.37
2022-09-15T12:47:54.773Z,58.77
2022-09-15T12:50:28.092Z,55.14
2022-09-15T12:53:01.959Z,53.39
2022-09-15T12:55:36.513Z,54.29
2022-09-15T12:58:18.616Z,52.51
2022-09-15T13:01:14.240Z,52.63
2022-09-15T13:03:42.002Z,55.35
2022-09-15T13:06:29.377Z,53.92
2022-09-15T13:09:05.992Z,55.00
2022-09-15T13:11:34.818Z,52.68
2022-09-15T13:14:08.768Z,54.22
2022-09-15T13:16:39.664Z,54.79
2022-09-15T13:19:20.723Z,54.09
2022-09-15T13:21:57.233Z,55.28
2022-09-15T13:24:37.487Z,53.10
2022-09-15T13:27:07.560Z,51.82
2022-09-15T13:30:09.444Z,51.37
2022-09-15T13:33:12.637Z,52.63
2022-09-15T13:36:13.282Z,52.64
2022-09-15T13:39:05.630Z,54.38
2022-09-15T13:41:55.111Z,53.86
2022-09-15T13:44:35.937Z,54.44
2022-09-15T13:47:31.848Z,54.60
2022-09-15T13:50:11.669Z,56.17
2022-09-15T13:53:02.950Z,60.86
2022-09-15T13:55:39.389Z,61.20
2022-09-15T14:01:08.458Z,57.17
2022-09-15T14:03:48.692Z,59.46
2022-09-15T14:06:30.407Z,59.81
2022-09-15T14:09:04.420Z,61.21
2022-09-15T14:11:35.564Z,60.77
2022-09-15T14:14:10.931Z,63.08
2022-09-15T14:16:39.787Z,64.82
2022-09-15T14:19:25.999Z,65.40
2022-09-15T14:21:58.327Z,65.79
2022-09-15T14:24:30.155Z,67.52
2022-09-15T14:27:03.458Z,66.98
2022-09-15T14:29:31.749Z,68.80
2022-09-15T14:32:01.836Z,70.02
2022-09-15T14:34:32.666Z,73.27
2022-09-15T14:37:07.713Z,74.53
2022-09-15T14:39:37.720Z,74.38
2022-09-15T14:42:23.619Z,75.62
2022-09-15T14:47:43.383Z,75.46
2022-09-15T14:50:14.673Z,75.18
2022-09-15T14:52:54.876Z,73.90
2022-09-15T14:55:28.235Z,75.22
2022-09-15T14:58:14.863Z,75.33
2022-09-15T15:01:08.003Z,74.26
2022-09-15T15:03:39.203Z,76.05
2022-09-15T15:06:28.659Z,80.26
2022-09-15T15:09:21.228Z,80.41
2022-09-15T15:11:53.684Z,82.33
2022-09-15T15:16:53.480Z,86.60
2022-09-15T15:19:33.951Z,86.83
2022-09-15T15:22:16.428Z,87.27
2022-09-15T15:24:47.692Z,86.21
2022-09-15T15:27:34.191Z,85.15
2022-09-15T15:30:26.505Z,84.97
2022-09-15T15:32:55.922Z,85.55
2022-09-15T15:35:24.697Z,85.32
2022-09-15T15:38:10.774Z,85.67
2022-09-15T15:40:40.685Z,86.12
2022-09-15T15:43:17.283Z,87.30
2022-09-15T15:45:50.246Z,86.46
2022-09-15T15:48:18.305Z,86.83
2022-09-15T15:50:46.475Z,87.17
2022-09-15T15:53:14.586Z,87.55
2022-09-15T15:55:44.075Z,87.99
2022-09-15T15:58:13.779Z,87.47
2022-09-15T16:00:46.136Z,86.43
2022-09-15T16:03:15.807Z,87.63
2022-09-15T16:05:47.003Z,88.64
2022-09-15T16:08:33.335Z,89.99
2022-09-15T16:11:02.968Z,94.14
2022-09-15T16:13:31.415Z,94.41
2022-09-15T16:16:01.201Z,94.48
2022-09-15T16:18:29.699Z,95.90
2022-09-15T16:20:57.777Z,97.96
2022-09-15T16:23:25.894Z,100.00
2022-09-15T16:26:07.331Z,100.00
2022-09-15T16:28:35.472Z,100.00
2022-09-15T16:31:04.457Z,100.00
2022-09-15T16:33:36.036Z,100.00
2022-09-15T16:36:09.108Z,100.00
2022-09-15T16:38:37.464Z,100.00
2022-09-15T16:41:13.495Z,100.00
2022-09-15T16:43:42.466Z,100.00
2022-09-15T16:46:14.480Z,100.00
2022-09-15T16:48:43.783Z,100.00
2022-09-15T16:51:28.001Z,100.00
2022-09-15T16:54:01.900Z,100.00
2022-09-15T16:56:30.062Z,100.00
2022-09-15T16:59:00.537Z,100.00
2022-09-15T17:01:29.191Z,100.00
2022-09-15T17:03:57.749Z,100.00
2022-09-15T17:06:26.074Z,100.00
2022-09-15T17:08:55.649Z,100.00
2022-09-15T17:11:25.498Z,100.00
2022-09-15T17:13:53.777Z,100.00
2022-09-15T17:16:22.284Z,100.00
2022-09-15T17:18:50.472Z,100.00
2022-09-15T17:21:19.829Z,100.00
2022-09-15T17:23:49.612Z,100.00
2022-09-15T17:26:27.616Z,100.00
2022-09-15T17:28:59.513Z,100.00
2022-09-15T17:31:28.074Z,100.00
2022-09-15T17:33:56.357Z,100.00
2022-09-15T17:36:24.976Z,100.00
2022-09-15T17:38:53.276Z,100.00
2022-09-15T17:41:22.876Z,100.00
2022-09-15T17:43:51.767Z,100.00
2022-09-15T17:46:20.091Z,100.00
2022-09-15T17:48:48.472Z,100.00
2022-09-15T17:51:17.616Z,100.00
2022-09-15T17:53:47.036Z,100.00
2022-09-15T17:56:15.335Z,100.00
2022-09-15T17:58:43.792Z,100.00
2022-09-15T18:01:15.522Z,100.00
2022-09-15T18:03:45.051Z,100.00
2022-09-15T18:06:13.631Z,100.00
2022-09-15T18:08:41.819Z,100.00
2022-09-15T18:11:17.140Z,100.00
2022-09-15T18:13:45.265Z,100.00
2022-09-15T18:16:14.910Z,100.00
2022-09-15T18:18:43.338Z,100.00
2022-09-15T18:21:26.940Z,100.00
2022-09-15T18:23:55.950Z,100.00
2022-09-15T18:26:26.259Z,100.00
2022-09-15T18:28:55.104Z,100.00
2022-09-15T18:31:23.578Z,100.00
2022-09-15T18:33:51.661Z,100.00
2022-09-15T18:36:19.781Z,100.00
2022-09-15T18:38:47.809Z,100.00
2022-09-15T18:41:15.970Z,100.00
2022-09-15T18:43:44.102Z,100.00
2022-09-15T18:46:12.277Z,100.00
2022-09-15T18:48:40.524Z,100.00
2022-09-15T18:51:09.698Z,100.00
2022-09-15T18:53:38.443Z,100.00
2022-09-15T18:56:14.712Z,100.00
2022-09-15T18:58:43.005Z,100.00
2022-09-15T19:01:11.329Z,100.00
2022-09-15T19:03:44.007Z,100.00
2022-09-15T19:06:12.524Z,100.00
2022-09-15T19:08:40.716Z,100.00
2022-09-15T19:11:09.399Z,100.00
2022-09-15T19:13:37.474Z,100.00
2022-09-15T19:16:10.987Z,100.00
2022-09-15T19:18:39.189Z,100.00
2022-09-15T19:21:09.531Z,100.00
2022-09-15T19:23:37.991Z,100.00
2022-09-15T19:26:08.119Z,100.00
2022-09-15T19:28:36.271Z,100.00
2022-09-15T19:31:05.018Z,100.00
2022-09-15T19:33:33.481Z,100.00
2022-09-15T19:36:26.976Z,100.00
2022-09-15T19:38:51.802Z,100.00
2022-09-15T19:41:19.918Z,100.00
2022-09-15T19:43:48.043Z,100.00
2022-09-15T19:46:19.180Z,100.00
2022-09-15T19:48:49.504Z,100.00
2022-09-15T19:51:19.212Z,100.00
2022-09-15T19:53:48.001Z,100.00
2022-09-15T19:56:21.878Z,100.00
2022-09-15T19:58:50.484Z,100.00
2022-09-15T20:01:19.035Z,100.00
2022-09-15T20:06:33.330Z,100.00
2022-09-15T20:09:01.476Z,100.00
2022-09-15T20:11:30.584Z,100.00
2022-09-15T20:14:01.511Z,100.00
2022-09-15T20:16:30.350Z,100.00
2022-09-15T20:18:58.583Z,100.00
2022-09-15T20:21:50.206Z,100.00
2022-09-15T20:24:20.057Z,100.00
2022-09-15T20:26:48.662Z,100.00
2022-09-15T20:29:17.294Z,100.00
2022-09-15T20:31:46.398Z,100.00
2022-09-15T20:34:14.508Z,100.00
2022-09-15T20:36:43.542Z,100.00
2022-09-15T20:39:14.556Z,100.00
2022-09-15T20:41:45.099Z,100.00
2022-09-15T20:44:13.943Z,100.00
2022-09-15T20:46:42.378Z,100.00
2022-09-15T20:49:11.133Z,100.00
2022-09-15T20:51:39.492Z,100.00
2022-09-15T20:54:10.973Z,100.00
2022-09-15T20:56:39.085Z,100.00
2022-09-15T20:59:10.379Z,100.00
2022-09-15T21:01:39.844Z,100.00
2022-09-15T21:04:09.160Z,100.00
2022-09-15T21:06:37.670Z,100.00
2022-09-15T21:09:06.016Z,100.00
2022-09-15T21:11:34.699Z,100.00
2022-09-15T21:14:03.290Z,100.00
2022-09-15T21:16:33.779Z,100.00
2022-09-15T21:19:02.037Z,100.00
2022-09-15T21:21:32.966Z,100.00
2022-09-15T21:24:04.579Z,100.00
2022-09-15T21:26:36.549Z,100.00
2022-09-15T21:29:04.623Z,100.00
2022-09-15T21:31:33.569Z,100.00
2022-09-15T21:34:02.539Z,100.00
2022-09-15T21:36:31.819Z,100.00
2022-09-15T21:39:00.502Z,100.00
2022-09-15T21:41:30.260Z,100.00
2022-09-15T21:43:59.328Z,100.00
2022-09-15T21:46:29.598Z,100.00
2022-09-15T21:48:59.517Z,100.00
2022-09-15T21:51:30.852Z,100.00
2022-09-15T21:54:00.780Z,100.00
2022-09-15T21:56:30.162Z,100.00
2022-09-15T21:58:58.597Z,100.00
2022-09-15T22:01:31.905Z,100.00
2022-09-15T22:04:00.927Z,100.00
2022-09-15T22:06:32.138Z,100.00
2022-09-15T22:09:10.566Z,100.00
2022-09-15T22:11:39.294Z,100.00
2022-09-15T22:14:10.143Z,100.00
2022-09-15T22:16:40.398Z,100.00
2022-09-15T22:19:10.654Z,100.00
2022-09-15T22:21:41.890Z,100.00
2022-09-15T22:24:14.201Z,100.00
2022-09-15T22:26:43.436Z,100.00
2022-09-15T22:29:13.837Z,100.00
2022-09-15T22:31:42.311Z,100.00
2022-09-15T22:34:10.654Z,100.00
2022-09-15T22:36:38.833Z,100.00
2022-09-15T22:39:07.758Z,100.00
2022-09-15T22:41:37.668Z,100.00
2022-09-15T22:44:07.856Z,100.00
2022-09-15T22:46:36.071Z,100.00
2022-09-15T22:49:04.179Z,100.00
2022-09-15T22:51:32.405Z,100.00
2022-09-15T22:54:03.436Z,100.00
2022-09-15T22:56:31.674Z,100.00
2022-09-15T22:59:00.061Z,100.00
2022-09-15T23:01:30.675Z,100.00
2022-09-15T23:04:01.577Z,100.00
2022-09-15T23:06:32.887Z,100.00
2022-09-15T23:09:07.570Z,100.00
2022-09-15T23:11:39.711Z,100.00
2022-09-15T23:14:13.018Z,100.00
2022-09-15T23:16:41.702Z,100.00
2022-09-15T23:19:13.400Z,100.00
2022-09-15T23:21:41.584Z,100.00
2022-09-15T23:24:12.415Z,100.00
2022-09-15T23:26:40.735Z,100.00
2022-09-15T23:29:10.075Z,100.00
2022-09-15T23:31:38.376Z,100.00
2022-09-15T23:34:06.544Z,100.00
2022-09-15T23:36:34.760Z,100.00
2022-09-15T23:39:03.013Z,100.00
2022-09-15T23:41:31.093Z,100.00
2022-09-15T23:43:59.916Z,100.00
2022-09-15T23:46:28.087Z,100.00
2022-09-15T23:48:56.320Z,100.00
2022-09-15T23:51:24.488Z,100.00
2022-09-15T23:53:52.857Z,100.00
2022-09-15T23:56:20.987Z,100.00
2022-09-15T23:58:49.118Z,100.00
